Time;durP1;ratioP1;P1;durP2;ratioP2;P2;SDS_P1;SDS_P2;PMS_P1;PMS_P2;Temp;Humidity;BMP_temperature;BMP_pressure;BME280_temperature;BME280_humidity;BME280_pressure;Samples;Min_cycle;Max_cycle;Signal;HPM_P1;HPM_P2
2024/01/05 00:00:33;;;;;;;121.57;72.30;;;;;;;;;;4411572;32;317962;-80
2024/01/05 00:03:00;;;;;;;146.03;77.93;;;;;;;;;;4403616;32;319390;-79
2024/01/05 00:05:28;;;;;;;133.77;77.23;;;;;;;;;;4412905;32;318751;-79
2024/01/05 00:07:55;;;;;;;148.37;89.53;;;;;;;;;;4403431;32;319279;-79
2024/01/05 00:10:36;;;;;;;139.43;83.57;;;;;;;;;;4412299;32;318726;-79
2024/01/05 00:13:04;;;;;;;128.97;75.47;;;;;;;;;;4400430;32;419523;-79
2024/01/05 00:15:31;;;;;;;133.70;73.53;;;;;;;;;;4411406;32;319336;-79
2024/01/05 00:17:59;;;;;;;115.37;69.90;;;;;;;;;;4402046;32;349603;-79
2024/01/05 00:20:27;;;;;;;113.50;68.87;;;;;;;;;;4410587;32;318954;-79
2024/01/05 00:22:54;;;;;;;104.83;66.10;;;;;;;;;;4397502;32;318946;-79
2024/01/05 00:25:21;;;;;;;107.90;66.30;;;;;;;;;;4411989;32;319680;-79
2024/01/05 00:27:53;;;;;;;98.60;61.30;;;;;;;;;;4386690;32;319516;-79
2024/01/05 00:30:21;;;;;;;72.43;43.10;;;;;;;;;;4406496;32;318457;-79
2024/01/05 00:32:49;;;;;;;67.47;39.93;;;;;;;;;;4381765;32;317770;-79
2024/01/05 00:35:16;;;;;;;57.53;37.17;;;;;;;;;;4397023;32;318371;-78
2024/01/05 00:37:44;;;;;;;52.67;35.93;;;;;;;;;;4390512;32;318104;-79
2024/01/05 00:40:12;;;;;;;51.70;33.30;;;;;;;;;;4411665;32;317642;-79
2024/01/05 00:42:39;;;;;;;56.87;35.33;;;;;;;;;;4396064;32;318309;-80
2024/01/05 00:45:08;;;;;;;56.83;34.93;;;;;;;;;;4409211;32;318256;-79
2024/01/05 00:47:35;;;;;;;49.07;32.67;;;;;;;;;;4409758;32;318462;-79
2024/01/05 00:50:04;;;;;;;48.53;29.53;;;;;;;;;;4396104;32;418680;-80
2024/01/05 00:52:31;;;;;;;80.43;38.20;;;;;;;;;;4410646;32;318481;-78
2024/01/05 00:54:58;;;;;;;81.67;39.90;;;;;;;;;;4394829;32;318963;-80
2024/01/05 00:57:26;;;;;;;90.27;41.40;;;;;;;;;;4410604;32;317513;-80
2024/01/05 00:59:54;;;;;;;104.53;46.83;;;;;;;;;;4400357;32;339270;-81
2024/01/05 01:02:22;;;;;;;109.40;48.57;;;;;;;;;;4410440;32;318762;-80
2024/01/05 01:04:50;;;;;;;136.73;54.23;;;;;;;;;;4394030;32;319273;-80
2024/01/05 01:07:17;;;;;;;126.83;56.93;;;;;;;;;;4412250;32;319188;-80
2024/01/05 01:09:44;;;;;;;140.47;56.80;;;;;;;;;;4400927;32;319344;-78
2024/01/05 01:12:11;;;;;;;99.07;45.77;;;;;;;;;;4410402;32;335819;-79
2024/01/05 01:14:39;;;;;;;99.00;47.47;;;;;;;;;;4396191;32;318925;-79
2024/01/05 01:17:05;;;;;;;110.27;47.80;;;;;;;;;;4412712;32;318283;-79
2024/01/05 01:19:35;;;;;;;94.87;46.03;;;;;;;;;;4411083;32;317913;-79
2024/01/05 01:22:04;;;;;;;97.83;46.43;;;;;;;;;;4395427;32;417276;-78
2024/01/05 01:24:34;;;;;;;119.50;40.90;;;;;;;;;;4408790;32;317662;-79
2024/01/05 01:27:02;;;;;;;98.20;42.53;;;;;;;;;;4395051;32;373575;-78
2024/01/05 01:29:28;;;;;;;70.77;36.50;;;;;;;;;;4408433;32;351428;-79
2024/01/05 01:31:55;;;;;;;85.80;27.70;;;;;;;;;;4392123;32;317956;-78
2024/01/05 01:34:23;;;;;;;63.67;27.90;;;;;;;;;;4408884;32;318151;-79
2024/01/05 01:36:54;;;;;;;48.50;23.57;;;;;;;;;;4382939;32;318385;-79
2024/01/05 01:39:22;;;;;;;36.07;17.53;;;;;;;;;;4396901;32;318327;-79
2024/01/05 01:41:52;;;;;;;42.57;17.77;;;;;;;;;;4398220;32;318273;-80
2024/01/05 01:44:19;;;;;;;36.30;13.77;;;;;;;;;;4409919;32;318452;-79
2024/01/05 01:46:46;;;;;;;28.10;11.70;;;;;;;;;;4392305;32;319294;-78
2024/01/05 01:49:13;;;;;;;40.23;10.97;;;;;;;;;;4407373;32;317679;-78
2024/01/05 01:51:41;;;;;;;27.53;9.47;;;;;;;;;;4395956;32;328882;-79
2024/01/05 01:54:11;;;;;;;31.73;12.33;;;;;;;;;;4409097;32;320355;-79
2024/01/05 01:56:39;;;;;;;43.33;11.67;;;;;;;;;;4385649;32;359879;-78
2024/01/05 01:59:07;;;;;;;24.50;11.57;;;;;;;;;;4408785;32;318836;-78
2024/01/05 02:01:37;;;;;;;28.10;10.00;;;;;;;;;;4409687;32;349817;-79
2024/01/05 02:04:04;;;;;;;39.53;8.03;;;;;;;;;;4392214;32;419365;-78
2024/01/05 02:06:31;;;;;;;35.07;11.17;;;;;;;;;;4410769;32;317141;-78
2024/01/05 02:08:59;;;;;;;22.57;9.33;;;;;;;;;;4378381;32;318155;-79
2024/01/05 02:11:27;;;;;;;22.67;9.63;;;;;;;;;;4400117;32;316801;-79
2024/01/05 02:13:54;;;;;;;30.10;10.97;;;;;;;;;;4399290;32;317206;-78
2024/01/05 02:16:22;;;;;;;44.93;11.07;;;;;;;;;;4407328;32;317978;-79
2024/01/05 02:18:53;;;;;;;18.80;10.07;;;;;;;;;;4390909;32;318007;-78
2024/01/05 02:21:24;;;;;;;63.47;24.73;;;;;;;;;;4406106;32;317688;-78
2024/01/05 02:23:55;;;;;;;63.00;28.83;;;;;;;;;;4398208;32;317864;-78
2024/01/05 02:26:22;;;;;;;62.93;30.50;;;;;;;;;;4407594;32;317517;-77
2024/01/05 02:28:49;;;;;;;63.37;30.23;;;;;;;;;;4393228;32;317693;-78
2024/01/05 02:31:16;;;;;;;77.00;33.87;;;;;;;;;;4400127;32;318194;-79
2024/01/05 02:33:45;;;;;;;63.97;31.37;;;;;;;;;;4384279;32;331001;-78
2024/01/05 02:36:14;;;;;;;66.47;30.30;;;;;;;;;;4399925;32;318053;-79
2024/01/05 02:38:41;;;;;;;65.67;32.77;;;;;;;;;;4382458;32;318128;-78
2024/01/05 02:41:11;;;;;;;73.20;35.90;;;;;;;;;;4421093;32;318847;-79
2024/01/05 02:43:39;;;;;;;74.03;38.00;;;;;;;;;;4412579;32;318024;-79
2024/01/05 02:46:06;;;;;;;81.87;39.23;;;;;;;;;;4422588;32;316256;-79
2024/01/05 02:48:32;;;;;;;105.63;35.50;;;;;;;;;;4421306;32;317561;-79
2024/01/05 02:51:00;;;;;;;83.13;35.57;;;;;;;;;;4404137;32;319330;-78
2024/01/05 02:53:27;;;;;;;79.17;37.27;;;;;;;;;;4411205;32;318236;-79
2024/01/05 02:55:54;;;;;;;76.20;36.37;;;;;;;;;;4397950;32;318217;-79
2024/01/05 03:01:04;;;;;;;91.13;35.63;;;;;;;;;;4388891;32;388719;-79
2024/01/05 03:03:32;;;;;;;100.03;35.47;;;;;;;;;;4396997;32;318424;-79
2024/01/05 03:05:59;;;;;;;108.13;32.73;;;;;;;;;;4378231;32;318899;-79
2024/01/05 03:08:26;;;;;;;80.53;31.90;;;;;;;;;;4387049;32;319290;-78
2024/01/05 03:10:53;;;;;;;71.17;35.03;;;;;;;;;;4375615;32;329673;-79
2024/01/05 03:13:19;;;;;;;87.03;32.37;;;;;;;;;;4394834;32;318314;-78
2024/01/05 03:15:47;;;;;;;74.43;35.20;;;;;;;;;;4384664;32;318188;-79
2024/01/05 03:18:15;;;;;;;69.63;28.73;;;;;;;;;;4394675;32;318045;-79
2024/01/05 03:20:45;;;;;;;58.13;28.57;;;;;;;;;;4375484;32;318307;-79
2024/01/05 03:23:11;;;;;;;95.47;37.93;;;;;;;;;;4396542;32;318360;-79
2024/01/05 03:25:39;;;;;;;90.23;35.20;;;;;;;;;;4385884;32;318287;-79
2024/01/05 03:28:07;;;;;;;77.73;34.00;;;;;;;;;;4396579;32;318666;-79
2024/01/05 03:30:34;;;;;;;77.17;33.83;;;;;;;;;;4393844;32;318022;-79
2024/01/05 03:33:03;;;;;;;96.07;33.47;;;;;;;;;;4397470;32;318154;-78
2024/01/05 03:35:30;;;;;;;88.17;33.03;;;;;;;;;;4408352;32;318117;-78
2024/01/05 03:37:58;;;;;;;73.23;34.87;;;;;;;;;;4400773;32;322411;-78
2024/01/05 03:40:25;;;;;;;67.00;32.03;;;;;;;;;;4410934;32;330766;-78
2024/01/05 03:42:53;;;;;;;99.80;32.87;;;;;;;;;;4391683;32;354560;-80
2024/01/05 03:45:20;;;;;;;66.17;30.33;;;;;;;;;;4412563;32;318218;-78
2024/01/05 03:47:46;;;;;;;82.00;28.13;;;;;;;;;;4404133;32;318261;-79
2024/01/05 03:50:16;;;;;;;73.20;26.07;;;;;;;;;;4413000;32;317661;-78
2024/01/05 03:52:44;;;;;;;85.10;26.63;;;;;;;;;;4396891;32;318108;-79
2024/01/05 03:55:10;;;;;;;62.17;24.70;;;;;;;;;;4411131;32;318290;-78
2024/01/05 03:57:37;;;;;;;58.67;24.80;;;;;;;;;;4401719;32;317862;-78
2024/01/05 04:00:05;;;;;;;71.70;26.73;;;;;;;;;;4412364;32;318159;-79
2024/01/05 04:02:32;;;;;;;55.73;30.27;;;;;;;;;;4414291;32;318820;-78
2024/01/05 04:04:58;;;;;;;61.03;24.67;;;;;;;;;;4385916;32;318091;-79
2024/01/05 04:07:26;;;;;;;66.80;26.43;;;;;;;;;;4397544;32;318744;-79
2024/01/05 04:09:53;;;;;;;51.67;24.47;;;;;;;;;;4387049;32;317842;-79
2024/01/05 04:12:22;;;;;;;59.73;28.60;;;;;;;;;;4393119;32;335933;-78
2024/01/05 04:14:49;;;;;;;53.40;24.73;;;;;;;;;;4379620;32;345018;-79
2024/01/05 04:17:16;;;;;;;54.03;23.63;;;;;;;;;;4378068;32;316575;-79
2024/01/05 04:19:44;;;;;;;52.50;25.63;;;;;;;;;;4384705;32;317754;-78
2024/01/05 04:22:11;;;;;;;62.07;25.73;;;;;;;;;;4395900;32;318024;-78
2024/01/05 04:24:39;;;;;;;44.87;22.33;;;;;;;;;;4382755;32;317675;-78
2024/01/05 04:27:05;;;;;;;55.17;23.33;;;;;;;;;;4398367;32;318068;-79
2024/01/05 04:29:33;;;;;;;62.47;20.43;;;;;;;;;;4397522;32;317600;-78
2024/01/05 04:32:00;;;;;;;55.80;19.03;;;;;;;;;;4377954;32;317739;-78
2024/01/05 04:34:28;;;;;;;46.70;18.87;;;;;;;;;;4392332;32;317551;-79
2024/01/05 04:36:56;;;;;;;31.70;17.90;;;;;;;;;;4378934;32;317652;-79
2024/01/05 04:39:26;;;;;;;41.60;21.80;;;;;;;;;;4389602;32;318440;-79
2024/01/05 04:42:00;;;;;;;54.07;26.60;;;;;;;;;;4380323;32;316618;-79
2024/01/05 04:44:29;;;;;;;36.50;19.83;;;;;;;;;;4393369;32;318226;-79
2024/01/05 04:46:56;;;;;;;36.30;17.97;;;;;;;;;;4365527;32;317883;-79
2024/01/05 04:49:23;;;;;;;40.87;17.00;;;;;;;;;;4402468;32;316588;-78
2024/01/05 04:51:51;;;;;;;32.80;17.30;;;;;;;;;;4391270;32;318601;-78
2024/01/05 04:54:18;;;;;;;29.93;16.67;;;;;;;;;;4401571;32;316903;-78
2024/01/05 04:56:45;;;;;;;29.00;16.10;;;;;;;;;;4380729;32;318677;-78
2024/01/05 04:59:14;;;;;;;40.43;17.90;;;;;;;;;;4404338;32;318138;-78
2024/01/05 05:01:43;;;;;;;27.27;13.73;;;;;;;;;;4398203;32;317827;-78
2024/01/05 05:04:09;;;;;;;31.63;14.63;;;;;;;;;;4407263;32;317419;-79
2024/01/05 05:06:37;;;;;;;44.47;12.80;;;;;;;;;;4399868;32;318002;-78
2024/01/05 05:09:05;;;;;;;36.87;14.90;;;;;;;;;;4409331;32;318049;-78
2024/01/05 05:11:32;;;;;;;31.10;12.47;;;;;;;;;;4407415;32;316342;-79
2024/01/05 05:13:58;;;;;;;29.37;12.20;;;;;;;;;;4398871;32;317848;-78
2024/01/05 05:16:26;;;;;;;28.90;11.70;;;;;;;;;;4400015;32;316957;-80
2024/01/05 05:18:53;;;;;;;34.53;9.70;;;;;;;;;;4375729;32;318315;-78
2024/01/05 05:21:20;;;;;;;22.80;10.20;;;;;;;;;;4393728;32;329959;-79
2024/01/05 05:23:48;;;;;;;28.20;11.60;;;;;;;;;;4384583;32;317630;-79
2024/01/05 05:26:16;;;;;;;21.67;10.73;;;;;;;;;;4394086;32;316522;-78
2024/01/05 05:28:42;;;;;;;23.97;12.93;;;;;;;;;;4379546;32;318326;-79
2024/01/05 05:31:09;;;;;;;25.27;14.07;;;;;;;;;;4386012;32;316846;-79
2024/01/05 05:33:37;;;;;;;28.40;13.80;;;;;;;;;;4395770;32;318712;-79
2024/01/05 05:36:06;;;;;;;35.07;15.33;;;;;;;;;;4367930;32;417127;-79
2024/01/05 05:38:32;;;;;;;31.47;18.27;;;;;;;;;;4393886;32;318528;-78
2024/01/05 05:41:02;;;;;;;34.67;19.30;;;;;;;;;;4376932;32;318281;-80
2024/01/05 05:43:29;;;;;;;39.50;19.77;;;;;;;;;;4394752;32;319579;-78
2024/01/05 05:45:57;;;;;;;43.60;20.20;;;;;;;;;;4386751;32;318024;-78
2024/01/05 05:48:24;;;;;;;38.80;19.43;;;;;;;;;;4396791;32;318130;-78
2024/01/05 05:50:53;;;;;;;39.87;19.77;;;;;;;;;;4362232;32;316947;-80
2024/01/05 05:53:21;;;;;;;40.67;19.83;;;;;;;;;;4397990;32;318657;-78
2024/01/05 05:55:55;;;;;;;45.10;21.20;;;;;;;;;;4368240;32;318167;-79
2024/01/05 05:58:23;;;;;;;38.13;18.97;;;;;;;;;;4370165;32;318256;-78
2024/01/05 06:00:52;;;;;;;47.10;20.53;;;;;;;;;;4375172;32;318782;-77
2024/01/05 06:03:19;;;;;;;56.20;22.00;;;;;;;;;;4379121;32;335443;-80
2024/01/05 06:05:46;;;;;;;40.33;19.57;;;;;;;;;;4372118;32;317507;-80
2024/01/05 06:08:14;;;;;;;44.67;19.73;;;;;;;;;;4381268;32;343734;-79
2024/01/05 06:10:41;;;;;;;52.20;19.63;;;;;;;;;;4368007;32;319906;-79
2024/01/05 06:13:08;;;;;;;46.07;22.20;;;;;;;;;;4392443;32;318557;-78
2024/01/05 06:15:36;;;;;;;53.33;22.67;;;;;;;;;;4373867;32;317674;-79
2024/01/05 06:18:03;;;;;;;49.20;24.70;;;;;;;;;;4371928;32;418013;-78
2024/01/05 06:20:31;;;;;;;46.83;21.73;;;;;;;;;;4373241;32;317549;-80
2024/01/05 06:22:58;;;;;;;47.10;20.17;;;;;;;;;;4379511;32;318383;-80
2024/01/05 06:25:28;;;;;;;41.60;21.87;;;;;;;;;;4381854;32;316797;-79
2024/01/05 06:27:55;;;;;;;49.97;22.70;;;;;;;;;;4375506;32;318218;-79
2024/01/05 06:30:21;;;;;;;39.27;19.60;;;;;;;;;;4394803;32;317600;-79
2024/01/05 06:32:48;;;;;;;34.90;18.10;;;;;;;;;;4361381;32;357747;-78
2024/01/05 06:35:15;;;;;;;45.33;21.20;;;;;;;;;;4378535;32;318536;-80
2024/01/05 06:37:41;;;;;;;47.10;21.77;;;;;;;;;;4372696;32;318108;-78
2024/01/05 06:40:13;;;;;;;39.70;21.57;;;;;;;;;;4395922;32;317910;-79
2024/01/05 06:42:43;;;;;;;59.90;37.37;;;;;;;;;;4380805;32;318273;-79
2024/01/05 06:45:10;;;;;;;58.00;26.00;;;;;;;;;;4391979;32;337519;-79
2024/01/05 06:47:37;;;;;;;47.57;25.13;;;;;;;;;;4394230;32;317784;-79
2024/01/05 06:50:04;;;;;;;62.23;26.80;;;;;;;;;;4383117;32;419138;-79
2024/01/05 06:52:32;;;;;;;55.53;27.17;;;;;;;;;;4394838;32;318228;-78
2024/01/05 06:55:01;;;;;;;50.57;25.67;;;;;;;;;;4375898;32;318271;-79
2024/01/05 06:57:29;;;;;;;62.77;29.10;;;;;;;;;;4392000;32;317827;-78
2024/01/05 06:59:57;;;;;;;78.43;41.57;;;;;;;;;;4369751;32;318272;-78
2024/01/05 07:02:25;;;;;;;70.70;36.07;;;;;;;;;;4393459;32;317994;-80
2024/01/05 07:04:51;;;;;;;63.83;38.23;;;;;;;;;;4381293;32;317754;-80
2024/01/05 07:07:20;;;;;;;62.03;29.50;;;;;;;;;;4390919;32;317842;-79
2024/01/05 07:09:46;;;;;;;54.47;27.20;;;;;;;;;;4384238;32;317717;-80
2024/01/05 07:12:14;;;;;;;67.23;31.47;;;;;;;;;;4385236;32;331794;-79
2024/01/05 07:14:41;;;;;;;74.13;29.17;;;;;;;;;;4363005;32;317844;-78
2024/01/05 07:17:09;;;;;;;58.90;32.47;;;;;;;;;;4390377;32;316339;-79
2024/01/05 07:19:36;;;;;;;53.17;28.97;;;;;;;;;;4395059;32;316363;-79
2024/01/05 07:22:04;;;;;;;57.80;32.83;;;;;;;;;;4380317;32;416272;-78
2024/01/05 07:24:33;;;;;;;69.33;37.27;;;;;;;;;;4397066;32;318645;-79
2024/01/05 07:26:59;;;;;;;59.30;32.57;;;;;;;;;;4381061;32;319045;-79
2024/01/05 07:29:26;;;;;;;69.87;38.57;;;;;;;;;;4392104;32;318169;-78
2024/01/05 07:31:55;;;;;;;65.57;32.30;;;;;;;;;;4383592;32;318178;-80
2024/01/05 07:34:24;;;;;;;61.00;32.97;;;;;;;;;;4396037;32;317556;-79
2024/01/05 07:36:51;;;;;;;59.17;28.67;;;;;;;;;;4376994;32;318161;-79
2024/01/05 07:39:18;;;;;;;69.40;34.80;;;;;;;;;;4394624;32;316773;-79
2024/01/05 07:41:47;;;;;;;67.03;33.07;;;;;;;;;;4381549;32;317894;-79
2024/01/05 07:44:15;;;;;;;60.00;30.00;;;;;;;;;;4390636;32;318196;-80
2024/01/05 07:46:50;;;;;;;64.57;30.30;;;;;;;;;;4375370;32;317749;-79
2024/01/05 07:49:18;;;;;;;55.93;32.13;;;;;;;;;;4393313;32;318137;-79
2024/01/05 07:51:46;;;;;;;61.83;29.40;;;;;;;;;;4384052;32;318276;-79
2024/01/05 07:54:13;;;;;;;54.47;27.30;;;;;;;;;;4393597;32;318262;-79
2024/01/05 07:56:41;;;;;;;59.37;29.70;;;;;;;;;;4370326;32;317951;-78
2024/01/05 07:59:07;;;;;;;57.87;33.20;;;;;;;;;;4393424;32;318194;-79
2024/01/05 08:01:34;;;;;;;73.63;39.77;;;;;;;;;;4394589;32;317641;-79
2024/01/05 08:04:03;;;;;;;67.47;36.10;;;;;;;;;;4381430;32;318041;-79
2024/01/05 08:09:15;;;;;;;72.67;39.63;;;;;;;;;;4380979;32;389915;-79
2024/01/05 08:11:44;;;;;;;87.30;39.13;;;;;;;;;;4372355;32;317984;-79
2024/01/05 08:14:11;;;;;;;69.87;36.73;;;;;;;;;;4383225;32;317836;-79
2024/01/05 08:16:37;;;;;;;52.67;26.10;;;;;;;;;;4370494;32;318451;-79
2024/01/05 08:19:04;;;;;;;42.10;25.07;;;;;;;;;;4374133;32;316751;-78
2024/01/05 08:21:31;;;;;;;22.90;14.60;;;;;;;;;;4381491;32;318085;-79
2024/01/05 08:23:58;;;;;;;27.40;14.93;;;;;;;;;;4372708;32;318350;-80
2024/01/05 08:26:27;;;;;;;40.13;17.13;;;;;;;;;;4383482;32;317162;-79
2024/01/05 08:28:55;;;;;;;44.23;17.67;;;;;;;;;;4363746;32;318249;-78
2024/01/05 08:31:22;;;;;;;55.00;25.47;;;;;;;;;;4382368;32;318156;-79
2024/01/05 08:33:49;;;;;;;37.80;21.47;;;;;;;;;;4376514;32;317920;-78
2024/01/05 08:36:17;;;;;;;47.87;24.53;;;;;;;;;;4396785;32;317954;-80
2024/01/05 08:38:45;;;;;;;62.93;32.43;;;;;;;;;;4350896;32;334709;-80
2024/01/05 08:41:12;;;;;;;70.00;35.23;;;;;;;;;;4372759;32;317873;-79
2024/01/05 08:43:43;;;;;;;66.50;34.30;;;;;;;;;;4366802;32;355420;-79
2024/01/05 08:46:10;;;;;;;72.67;36.07;;;;;;;;;;4382231;32;353506;-80
2024/01/05 08:48:37;;;;;;;89.10;42.03;;;;;;;;;;4363148;32;317430;-79
2024/01/05 08:51:05;;;;;;;82.07;43.57;;;;;;;;;;4380655;32;317258;-80
2024/01/05 08:53:32;;;;;;;102.50;48.23;;;;;;;;;;4370255;32;318201;-79
2024/01/05 08:55:58;;;;;;;97.50;45.90;;;;;;;;;;4382065;32;318798;-79
2024/01/05 08:58:27;;;;;;;84.90;43.00;;;;;;;;;;4381390;32;318119;-80
2024/01/05 09:00:56;;;;;;;90.97;41.37;;;;;;;;;;4370338;32;418927;-79
2024/01/05 09:03:26;;;;;;;81.13;42.63;;;;;;;;;;4397424;32;317564;-78
2024/01/05 09:05:52;;;;;;;83.43;42.33;;;;;;;;;;4380009;32;417455;-77
2024/01/05 09:08:19;;;;;;;80.07;42.10;;;;;;;;;;4394268;32;317802;-79
2024/01/05 09:10:46;;;;;;;80.03;42.80;;;;;;;;;;4377641;32;317570;-78
2024/01/05 09:13:13;;;;;;;95.37;46.13;;;;;;;;;;4394886;32;316368;-78
2024/01/05 09:15:41;;;;;;;78.97;44.50;;;;;;;;;;4382853;32;316695;-79
2024/01/05 09:18:10;;;;;;;94.73;48.13;;;;;;;;;;4393295;32;317896;-80
2024/01/05 09:20:37;;;;;;;94.10;49.80;;;;;;;;;;4379571;32;318471;-80
2024/01/05 09:23:06;;;;;;;106.97;53.87;;;;;;;;;;4394479;32;317185;-80
2024/01/05 09:25:33;;;;;;;112.37;55.87;;;;;;;;;;4384183;32;322555;-80
2024/01/05 09:28:00;;;;;;;118.93;60.50;;;;;;;;;;4396266;32;319253;-79
2024/01/05 09:30:28;;;;;;;123.90;58.57;;;;;;;;;;4381422;32;321124;-79
2024/01/05 09:32:58;;;;;;;116.37;58.83;;;;;;;;;;4372908;32;321975;-81
2024/01/05 09:35:27;;;;;;;134.23;64.73;;;;;;;;;;4378286;32;318912;-80
2024/01/05 09:37:54;;;;;;;114.50;58.13;;;;;;;;;;4366049;32;417670;-80
2024/01/05 09:40:21;;;;;;;126.03;62.70;;;;;;;;;;4377724;32;318663;-78
2024/01/05 09:42:51;;;;;;;116.63;60.43;;;;;;;;;;4361228;32;319029;-80
2024/01/05 09:45:21;;;;;;;137.07;68.40;;;;;;;;;;4377352;32;319258;-78
2024/01/05 09:47:50;;;;;;;120.40;61.60;;;;;;;;;;4369039;32;318924;-79
2024/01/05 09:50:19;;;;;;;118.10;58.40;;;;;;;;;;4381606;32;318553;-80
2024/01/05 09:52:48;;;;;;;118.47;64.73;;;;;;;;;;4366295;32;319029;-79
2024/01/05 09:55:15;;;;;;;122.30;64.87;;;;;;;;;;4383882;32;319338;-80
2024/01/05 09:57:46;;;;;;;128.60;62.70;;;;;;;;;;4373633;32;319116;-80
2024/01/05 10:00:16;;;;;;;127.23;63.27;;;;;;;;;;4379620;32;319318;-80
2024/01/05 10:02:49;;;;;;;116.03;59.63;;;;;;;;;;4366999;32;318881;-79
2024/01/05 10:05:16;;;;;;;118.40;60.13;;;;;;;;;;4378886;32;318370;-80
2024/01/05 10:07:43;;;;;;;126.33;64.17;;;;;;;;;;4366484;32;319215;-79
2024/01/05 10:10:12;;;;;;;126.33;65.00;;;;;;;;;;4377145;32;318488;-78
2024/01/05 10:12:39;;;;;;;123.13;63.97;;;;;;;;;;4353602;32;319227;-80
2024/01/05 10:15:07;;;;;;;128.30;62.20;;;;;;;;;;4380936;32;319531;-79
2024/01/05 10:17:35;;;;;;;121.93;65.03;;;;;;;;;;4370562;32;319174;-79
2024/01/05 10:20:13;;;;;;;135.13;67.87;;;;;;;;;;4379158;32;319574;-80
2024/01/05 10:22:41;;;;;;;137.37;67.20;;;;;;;;;;4362834;32;319141;-79
2024/01/05 10:25:21;;;;;;;125.13;62.90;;;;;;;;;;4379546;32;319565;-80
2024/01/05 10:27:49;;;;;;;215.47;112.67;;;;;;;;;;4369224;32;319311;-80
2024/01/05 10:30:29;;;;;;;123.10;66.57;;;;;;;;;;4381761;32;319742;-81
2024/01/05 10:33:06;;;;;;;121.90;66.10;;;;;;;;;;4356367;32;418454;-80
2024/01/05 10:35:34;;;;;;;145.47;67.63;;;;;;;;;;4369915;32;319408;-79
2024/01/05 10:38:05;;;;;;;135.10;69.10;;;;;;;;;;4392609;32;319061;-80
2024/01/05 10:40:41;;;;;;;133.50;67.90;;;;;;;;;;4379766;32;319215;-80
2024/01/05 10:43:12;;;;;;;131.27;65.50;;;;;;;;;;4394254;32;319342;-79
2024/01/05 10:45:41;;;;;;;114.67;59.77;;;;;;;;;;4384167;32;319313;-80
2024/01/05 10:48:13;;;;;;;117.93;60.97;;;;;;;;;;4388397;32;318516;-81
2024/01/05 10:50:43;;;;;;;125.63;60.97;;;;;;;;;;4360151;32;319280;-80
2024/01/05 10:53:10;;;;;;;130.63;69.00;;;;;;;;;;4390895;32;318819;-79
2024/01/05 10:55:42;;;;;;;132.97;68.10;;;;;;;;;;4383973;32;319376;-80
2024/01/05 10:58:09;;;;;;;134.13;68.13;;;;;;;;;;4391772;32;318558;-79
2024/01/05 11:00:37;;;;;;;128.47;62.80;;;;;;;;;;4383505;32;319403;-79
2024/01/05 11:03:13;;;;;;;108.60;56.93;;;;;;;;;;4389752;32;336394;-79
2024/01/05 11:05:44;;;;;;;126.93;59.83;;;;;;;;;;4386036;32;319408;-79
2024/01/05 11:08:26;;;;;;;133.20;66.23;;;;;;;;;;4396303;32;319315;-79
2024/01/05 11:11:11;;;;;;;137.67;67.60;;;;;;;;;;4363305;32;419796;-79
2024/01/05 11:14:00;;;;;;;142.00;71.10;;;;;;;;;;4374007;32;319704;-78
2024/01/05 11:17:02;;;;;;;137.80;68.13;;;;;;;;;;4392264;32;319493;-79
2024/01/05 11:19:50;;;;;;;139.50;67.13;;;;;;;;;;4333713;32;418841;-79
2024/01/05 11:22:21;;;;;;;139.93;69.97;;;;;;;;;;4406703;32;319536;-79
2024/01/05 11:24:49;;;;;;;143.63;70.70;;;;;;;;;;4390966;32;319454;-79
2024/01/05 11:27:35;;;;;;;173.80;89.80;;;;;;;;;;4410609;32;335310;-78
2024/01/05 11:30:03;;;;;;;163.63;79.27;;;;;;;;;;4383585;32;418062;-79
2024/01/05 11:32:34;;;;;;;147.20;74.00;;;;;;;;;;4382336;32;319751;-79
2024/01/05 11:35:02;;;;;;;148.37;72.87;;;;;;;;;;4391280;32;319543;-78
2024/01/05 11:37:30;;;;;;;141.93;71.00;;;;;;;;;;4384986;32;319170;-79
2024/01/05 11:39:59;;;;;;;143.97;68.57;;;;;;;;;;4389287;32;319521;-80
2024/01/05 11:42:34;;;;;;;146.43;70.40;;;;;;;;;;4387995;32;321268;-80
2024/01/05 11:45:04;;;;;;;158.73;73.40;;;;;;;;;;4396533;32;319174;-79
2024/01/05 11:47:44;;;;;;;137.43;71.23;;;;;;;;;;4378862;32;347686;-79
2024/01/05 11:50:31;;;;;;;151.50;72.80;;;;;;;;;;4397698;32;319466;-80
2024/01/05 11:53:12;;;;;;;155.33;73.87;;;;;;;;;;4382850;32;420457;-80
2024/01/05 11:55:43;;;;;;;162.93;78.97;;;;;;;;;;4380011;32;319280;-79
2024/01/05 11:58:16;;;;;;;185.77;86.80;;;;;;;;;;4395299;32;318679;-80
2024/01/05 12:00:46;;;;;;;184.97;91.33;;;;;;;;;;4385264;32;420820;-80
2024/01/05 12:03:15;;;;;;;182.80;85.83;;;;;;;;;;4394812;32;337473;-80
2024/01/05 12:05:43;;;;;;;164.77;78.63;;;;;;;;;;4360660;32;405126;-80
2024/01/05 12:08:11;;;;;;;170.23;80.57;;;;;;;;;;4379319;32;319611;-79
2024/01/05 12:10:39;;;;;;;176.37;82.03;;;;;;;;;;4371526;32;320204;-79
2024/01/05 12:13:08;;;;;;;185.90;89.97;;;;;;;;;;4382100;32;319183;-79
2024/01/05 12:15:39;;;;;;;182.00;85.27;;;;;;;;;;4366191;32;319282;-79
2024/01/05 12:18:08;;;;;;;163.50;80.30;;;;;;;;;;4369105;32;319424;-80
2024/01/05 12:20:34;;;;;;;170.60;81.20;;;;;;;;;;4362662;32;319170;-79
2024/01/05 12:23:02;;;;;;;174.63;84.63;;;;;;;;;;4379970;32;319520;-78
2024/01/05 12:25:31;;;;;;;174.63;83.03;;;;;;;;;;4362683;32;319654;-79
2024/01/05 12:27:59;;;;;;;185.17;87.27;;;;;;;;;;4379202;32;318922;-79
2024/01/05 12:30:28;;;;;;;182.30;86.83;;;;;;;;;;4368944;32;319637;-79
2024/01/05 12:32:56;;;;;;;195.17;90.70;;;;;;;;;;4379997;32;319370;-80
2024/01/05 12:35:23;;;;;;;200.60;97.03;;;;;;;;;;4372892;32;319476;-79
2024/01/05 12:37:52;;;;;;;182.93;88.80;;;;;;;;;;4382026;32;319319;-79
2024/01/05 12:40:24;;;;;;;188.47;89.53;;;;;;;;;;4388025;32;319552;-78
2024/01/05 12:42:52;;;;;;;186.67;89.23;;;;;;;;;;4393630;32;318720;-79
2024/01/05 12:45:22;;;;;;;182.40;87.77;;;;;;;;;;4386185;32;319220;-79
2024/01/05 12:47:50;;;;;;;180.33;84.93;;;;;;;;;;4388990;32;328743;-79
2024/01/05 12:50:26;;;;;;;177.90;84.07;;;;;;;;;;4386314;32;318928;-79
2024/01/05 12:52:54;;;;;;;166.37;81.80;;;;;;;;;;4394135;32;324986;-80
2024/01/05 12:55:31;;;;;;;913.07;367.70;;;;;;;;;;4386401;32;319433;-79
2024/01/05 12:58:02;;;;;;;705.50;283.70;;;;;;;;;;4396571;32;318985;-79
2024/01/05 13:00:29;;;;;;;253.20;109.63;;;;;;;;;;4383903;32;320521;-79
2024/01/05 13:02:56;;;;;;;210.90;94.60;;;;;;;;;;4393090;32;319764;-79
2024/01/05 13:05:34;;;;;;;190.07;91.20;;;;;;;;;;4384598;32;319289;-78
2024/01/05 13:08:02;;;;;;;190.33;92.90;;;;;;;;;;4395456;32;319330;-79
2024/01/05 13:10:30;;;;;;;201.07;94.27;;;;;;;;;;4383893;32;319955;-79
2024/01/05 13:12:57;;;;;;;216.20;97.67;;;;;;;;;;4393760;32;318906;-80
2024/01/05 13:15:25;;;;;;;192.67;95.20;;;;;;;;;;4383681;32;319575;-79
2024/01/05 13:17:52;;;;;;;206.23;98.17;;;;;;;;;;4394047;32;319378;-79
2024/01/05 13:20:24;;;;;;;212.87;99.20;;;;;;;;;;4384017;32;319236;-81
2024/01/05 13:22:54;;;;;;;220.20;100.23;;;;;;;;;;4397330;32;320787;-79
2024/01/05 13:25:21;;;;;;;205.27;100.90;;;;;;;;;;4383889;32;320208;-78
2024/01/05 13:27:48;;;;;;;198.17;97.40;;;;;;;;;;4387565;32;320414;-78
2024/01/05 13:30:15;;;;;;;200.07;96.90;;;;;;;;;;4394260;32;346344;-79
2024/01/05 13:32:44;;;;;;;201.10;98.37;;;;;;;;;;4369694;32;417795;-80
2024/01/05 13:35:12;;;;;;;201.73;99.13;;;;;;;;;;4388704;32;318849;-80
2024/01/05 13:37:39;;;;;;;233.07;101.87;;;;;;;;;;4377192;32;318572;-80
2024/01/05 13:40:10;;;;;;;220.57;100.93;;;;;;;;;;4391899;32;320445;-79
2024/01/05 13:42:37;;;;;;;220.27;101.18;;;;;;;;;;4384218;32;320291;-78
2024/01/05 13:45:05;;;;;;;213.80;100.20;;;;;;;;;;4393965;32;320404;-78
2024/01/05 13:47:33;;;;;;;227.37;103.20;;;;;;;;;;4377583;32;320436;-79
2024/01/05 13:50:02;;;;;;;219.53;105.63;;;;;;;;;;4393558;32;320331;-78
2024/01/05 13:52:29;;;;;;;215.23;104.50;;;;;;;;;;4382615;32;320056;-79
2024/01/05 13:54:57;;;;;;;215.80;103.73;;;;;;;;;;4393291;32;334078;-80
2024/01/05 13:57:25;;;;;;;203.40;99.40;;;;;;;;;;4381227;32;320424;-79
2024/01/05 13:59:52;;;;;;;206.50;102.10;;;;;;;;;;4393791;32;317981;-78
2024/01/05 14:02:19;;;;;;;190.93;96.33;;;;;;;;;;4383485;32;320092;-80
2024/01/05 14:04:47;;;;;;;194.60;97.80;;;;;;;;;;4396667;32;319324;-79
2024/01/05 14:07:14;;;;;;;184.73;96.33;;;;;;;;;;4393828;32;318899;-79
2024/01/05 14:09:42;;;;;;;185.77;94.67;;;;;;;;;;4380889;32;318460;-79
2024/01/05 14:12:09;;;;;;;194.90;98.60;;;;;;;;;;4397735;32;318424;-80